createdAt,value
2022-08-26T00:02:25.602Z,23.70
2022-08-26T00:04:56.587Z,23.60
2022-08-26T00:07:26.131Z,23.70
2022-08-26T00:09:55.579Z,23.80
2022-08-26T00:12:27.881Z,23.60
2022-08-26T00:14:56.938Z,23.70
2022-08-26T00:17:27.350Z,23.60
2022-08-26T00:19:57.592Z,23.60
2022-08-26T00:22:27.368Z,23.60
2022-08-26T00:24:57.538Z,23.50
2022-08-26T00:27:27.049Z,23.40
2022-08-26T00:29:58.063Z,23.30
2022-08-26T00:32:28.301Z,23.20
2022-08-26T00:34:57.737Z,23.30
2022-08-26T00:37:27.361Z,23.20
2022-08-26T00:39:57.275Z,23.20
2022-08-26T00:42:28.809Z,23.20
2022-08-26T00:44:58.706Z,23.30
2022-08-26T00:47:31.362Z,23.20
2022-08-26T00:50:03.403Z,23.20
2022-08-26T00:52:33.686Z,23.20
2022-08-26T00:55:09.238Z,23.30
2022-08-26T00:57:40.111Z,23.30
2022-08-26T01:00:15.757Z,23.30
2022-08-26T01:02:47.454Z,23.20
2022-08-26T01:05:19.813Z,23.30
2022-08-26T01:07:49.829Z,23.20
2022-08-26T01:10:22.441Z,23.20
2022-08-26T01:12:52.738Z,23.10
2022-08-26T01:15:25.270Z,23.00
2022-08-26T01:17:54.983Z,23.00
2022-08-26T01:20:36.765Z,23.10
2022-08-26T01:23:09.374Z,23.10
2022-08-26T01:25:43.007Z,23.00
2022-08-26T01:28:21.883Z,22.90
2022-08-26T01:30:54.175Z,22.90
2022-08-26T01:33:26.894Z,22.70
2022-08-26T01:35:57.192Z,22.70
2022-08-26T01:38:28.065Z,22.50
2022-08-26T01:40:59.980Z,22.70
2022-08-26T01:43:33.257Z,22.80
2022-08-26T01:46:03.951Z,22.80
2022-08-26T01:48:37.022Z,22.60
2022-08-26T01:51:10.046Z,22.70
2022-08-26T01:53:41.685Z,22.70
2022-08-26T01:56:13.071Z,22.70
2022-08-26T01:58:51.310Z,22.80
2022-08-26T02:01:23.342Z,22.70
2022-08-26T02:04:06.360Z,22.80
2022-08-26T02:06:39.299Z,22.80
2022-08-26T02:09:10.610Z,22.90
2022-08-26T02:11:40.196Z,22.90
2022-08-26T02:14:21.982Z,23.00
2022-08-26T02:16:54.180Z,23.00
2022-08-26T02:19:26.831Z,22.80
2022-08-26T02:21:59.682Z,23.00
2022-08-26T02:26:01.169Z,22.80
2022-08-26T02:28:33.702Z,22.90
2022-08-26T02:31:03.994Z,22.90
2022-08-26T02:33:34.509Z,23.00
2022-08-26T02:36:06.346Z,22.80
2022-08-26T02:38:37.423Z,22.90
2022-08-26T02:41:08.711Z,22.90
2022-08-26T02:43:39.819Z,22.80
2022-08-26T02:46:09.499Z,22.90
2022-08-26T02:48:39.115Z,22.80
2022-08-26T02:51:08.934Z,22.80
2022-08-26T02:53:38.529Z,22.80
2022-08-26T02:56:12.031Z,22.70
2022-08-26T02:58:41.636Z,22.70
2022-08-26T03:01:22.995Z,22.70
2022-08-26T03:03:52.710Z,22.70
2022-08-26T03:06:23.357Z,22.70
2022-08-26T03:08:53.826Z,22.80
2022-08-26T03:11:24.625Z,22.70
2022-08-26T03:13:55.892Z,22.60
2022-08-26T03:16:26.044Z,22.60
2022-08-26T03:18:56.950Z,22.50
2022-08-26T03:21:28.206Z,22.60
2022-08-26T03:23:58.647Z,22.50
2022-08-26T03:26:52.178Z,22.60
2022-08-26T03:29:32.930Z,22.50
2022-08-26T03:32:04.344Z,22.60
2022-08-26T03:34:34.354Z,22.60
2022-08-26T03:37:03.896Z,22.60
2022-08-26T03:39:33.548Z,22.60
2022-08-26T03:42:03.157Z,22.70
2022-08-26T03:44:32.676Z,22.70
2022-08-26T03:47:02.193Z,22.70
2022-08-26T03:49:35.155Z,22.60
2022-08-26T03:52:06.941Z,22.80
2022-08-26T03:54:36.387Z,22.90
2022-08-26T03:57:06.064Z,22.80
2022-08-26T03:59:35.611Z,22.80
2022-08-26T04:02:08.487Z,22.80
2022-08-26T04:04:38.537Z,22.80
2022-08-26T04:07:08.278Z,22.90
2022-08-26T04:09:37.824Z,22.80
2022-08-26T04:12:10.896Z,22.70
2022-08-26T04:14:41.355Z,22.80
2022-08-26T04:17:11.724Z,22.80
2022-08-26T04:19:41.242Z,22.80
2022-08-26T04:22:11.991Z,22.80
2022-08-26T04:24:42.374Z,22.80
2022-08-26T04:27:12.336Z,22.90
2022-08-26T04:29:41.784Z,22.90
2022-08-26T04:32:11.369Z,22.80
2022-08-26T04:34:41.947Z,22.90
2022-08-26T04:37:11.603Z,22.80
2022-08-26T04:39:41.102Z,22.90
2022-08-26T04:42:10.551Z,22.80
2022-08-26T04:44:41.612Z,22.70
2022-08-26T04:47:11.403Z,22.60
2022-08-26T04:49:40.853Z,22.60
2022-08-26T04:52:12.306Z,22.60
2022-08-26T04:54:42.160Z,22.60
2022-08-26T04:57:11.592Z,22.60
2022-08-26T04:59:41.120Z,22.60
2022-08-26T05:02:10.637Z,22.60
2022-08-26T05:04:41.814Z,22.60
2022-08-26T05:07:11.998Z,22.70
2022-08-26T05:09:42.009Z,22.70
2022-08-26T05:12:11.467Z,22.80
2022-08-26T05:14:41.658Z,22.70
2022-08-26T05:17:11.971Z,22.70
2022-08-26T05:19:43.026Z,22.60
2022-08-26T05:22:13.266Z,22.70
2022-08-26T05:24:43.327Z,22.70
2022-08-26T05:27:13.536Z,22.60
2022-08-26T05:29:44.359Z,22.70
2022-08-26T05:32:15.085Z,22.70
2022-08-26T05:34:50.636Z,22.70
2022-08-26T05:37:22.447Z,22.70
2022-08-26T05:39:52.092Z,22.70
2022-08-26T05:42:22.886Z,22.70
2022-08-26T05:44:55.668Z,22.80
2022-08-26T05:47:26.941Z,22.80
2022-08-26T05:49:56.629Z,22.80
2022-08-26T05:52:26.279Z,22.80
2022-08-26T05:54:55.787Z,22.80
2022-08-26T05:57:25.344Z,22.80
2022-08-26T05:59:54.788Z,22.70
2022-08-26T06:02:26.170Z,22.60
2022-08-26T06:04:55.708Z,22.70
2022-08-26T06:07:27.127Z,22.80
2022-08-26T06:10:21.325Z,22.80
2022-08-26T06:12:28.139Z,22.90
2022-08-26T06:14:57.712Z,22.80
2022-08-26T06:17:27.254Z,22.70
2022-08-26T06:19:58.534Z,22.80
2022-08-26T06:22:45.866Z,22.80
2022-08-26T06:25:33.543Z,22.70
2022-08-26T06:28:04.170Z,22.70
2022-08-26T06:30:36.759Z,22.60
2022-08-26T06:33:06.448Z,22.60
2022-08-26T06:35:42.142Z,22.80
2022-08-26T06:38:12.100Z,22.80
2022-08-26T06:40:45.548Z,22.80
2022-08-26T06:43:17.631Z,22.80
2022-08-26T06:45:48.963Z,22.80
2022-08-26T06:48:21.569Z,22.80
2022-08-26T06:50:51.076Z,22.80
2022-08-26T06:53:20.762Z,22.80
2022-08-26T06:55:51.791Z,22.90
2022-08-26T06:58:21.434Z,22.90
2022-08-26T07:00:51.587Z,22.80
2022-08-26T07:03:22.666Z,22.80
2022-08-26T07:05:52.346Z,22.80
2022-08-26T07:08:23.710Z,22.80
2022-08-26T07:10:53.300Z,22.70
2022-08-26T07:13:38.111Z,22.70
2022-08-26T07:16:24.314Z,22.90
2022-08-26T07:19:29.107Z,22.90
2022-08-26T07:22:13.389Z,22.90
2022-08-26T07:24:55.864Z,22.90
2022-08-26T07:27:54.104Z,23.10
2022-08-26T07:30:54.635Z,23.30
2022-08-26T07:33:45.280Z,23.10
2022-08-26T07:36:30.883Z,23.10
2022-08-26T07:39:27.119Z,23.20
2022-08-26T07:42:20.725Z,23.20
2022-08-26T07:45:02.954Z,23.30
2022-08-26T07:47:46.298Z,23.30
2022-08-26T07:50:49.149Z,23.60
2022-08-26T07:53:34.254Z,23.60
2022-08-26T07:56:10.539Z,23.60
2022-08-26T07:59:01.471Z,23.40
2022-08-26T08:01:47.258Z,23.40
2022-08-26T08:04:42.396Z,23.30
2022-08-26T08:07:44.407Z,23.40
2022-08-26T08:10:17.516Z,23.70
2022-08-26T08:13:02.274Z,24.20
2022-08-26T08:15:50.371Z,24.70
2022-08-26T08:18:28.945Z,24.70
2022-08-26T08:21:21.036Z,24.70
2022-08-26T08:23:55.818Z,24.60
2022-08-26T08:26:46.535Z,24.20
2022-08-26T08:29:22.589Z,24.40
2022-08-26T08:32:19.876Z,24.80
2022-08-26T08:35:17.275Z,25.00
2022-08-26T08:38:06.078Z,25.50
2022-08-26T08:40:46.334Z,25.30
2022-08-26T08:43:41.498Z,25.60
2022-08-26T08:46:21.289Z,25.90
2022-08-26T08:49:11.017Z,25.80
2022-08-26T08:52:05.011Z,25.60
2022-08-26T08:54:48.863Z,25.50
2022-08-26T08:58:01.963Z,25.50
2022-08-26T09:00:45.325Z,25.60
2022-08-26T09:03:54.138Z,26.10
2022-08-26T09:06:37.195Z,26.30
2022-08-26T09:09:31.543Z,26.10
2022-08-26T09:12:17.449Z,26.00
2022-08-26T09:15:11.519Z,26.10
2022-08-26T09:18:11.057Z,26.80
2022-08-26T09:21:15.514Z,26.70
2022-08-26T09:24:13.887Z,26.30
2022-08-26T09:27:04.961Z,26.20
2022-08-26T09:29:45.592Z,26.30
2022-08-26T09:32:36.779Z,26.50
2022-08-26T09:35:25.439Z,26.50
2022-08-26T09:38:39.819Z,26.90
2022-08-26T09:41:39.084Z,26.80
2022-08-26T09:44:26.573Z,27.20
2022-08-26T09:47:12.458Z,27.10
2022-08-26T09:49:58.702Z,27.50
2022-08-26T09:52:42.851Z,27.10
2022-08-26T09:55:38.597Z,26.90
2022-08-26T09:58:45.274Z,26.80
2022-08-26T10:01:39.690Z,27.10
2022-08-26T10:04:40.163Z,28.00
2022-08-26T10:07:57.435Z,28.00
2022-08-26T10:10:48.028Z,27.70
2022-08-26T10:13:57.977Z,27.50
2022-08-26T10:16:56.686Z,28.60
2022-08-26T10:19:56.974Z,29.90
2022-08-26T10:22:42.426Z,29.60
2022-08-26T10:25:41.556Z,30.00
2022-08-26T10:28:20.821Z,30.60
2022-08-26T10:31:14.770Z,31.00
2022-08-26T10:34:00.507Z,31.40
2022-08-26T10:37:14.990Z,31.70
2022-08-26T10:39:39.192Z,30.40
2022-08-26T10:42:33.821Z,30.60
2022-08-26T10:45:24.137Z,30.80
2022-08-26T10:48:18.783Z,31.40
2022-08-26T10:51:04.907Z,31.80
2022-08-26T10:53:57.599Z,31.90
2022-08-26T10:57:09.830Z,31.90
2022-08-26T11:00:05.039Z,32.10
2022-08-26T11:02:58.029Z,32.30
2022-08-26T11:05:47.766Z,32.10
2022-08-26T11:08:29.906Z,31.40
2022-08-26T11:11:18.125Z,30.90
2022-08-26T11:14:13.191Z,31.50
2022-08-26T11:17:06.551Z,31.20
2022-08-26T11:20:01.213Z,30.60
2022-08-26T11:22:47.880Z,30.10
2022-08-26T11:25:29.653Z,29.90
2022-08-26T11:28:15.701Z,30.80
2022-08-26T11:30:58.054Z,31.90
2022-08-26T11:33:54.134Z,31.90
2022-08-26T11:36:52.927Z,32.30
2022-08-26T11:39:47.273Z,32.60
2022-08-26T11:42:35.519Z,32.80
2022-08-26T11:45:21.230Z,32.70
2022-08-26T11:48:36.609Z,33.40
2022-08-26T11:51:40.834Z,33.50
2022-08-26T11:54:35.469Z,34.10
2022-08-26T11:57:11.651Z,32.10
2022-08-26T11:59:59.798Z,32.50
2022-08-26T12:02:42.684Z,31.40
2022-08-26T12:05:44.730Z,30.80
2022-08-26T12:08:35.059Z,32.20
2022-08-26T12:11:27.887Z,32.50
2022-08-26T12:14:32.878Z,31.90
2022-08-26T12:17:23.980Z,30.90
2022-08-26T12:20:07.439Z,32.80
2022-08-26T12:22:52.399Z,33.20
2022-08-26T12:25:36.165Z,31.40
2022-08-26T12:28:18.886Z,30.90
2022-08-26T12:31:12.311Z,30.80
2022-08-26T12:33:49.760Z,31.00
2022-08-26T12:37:01.147Z,32.60
2022-08-26T12:39:59.495Z,33.30
2022-08-26T12:42:50.489Z,33.50
2022-08-26T12:45:38.468Z,34.00
2022-08-26T12:48:33.427Z,34.60
2022-08-26T12:51:16.907Z,34.20
2022-08-26T12:54:14.846Z,32.40
2022-08-26T12:57:04.169Z,32.30
2022-08-26T12:59:46.758Z,32.50
2022-08-26T13:02:47.311Z,32.80
2022-08-26T13:05:35.949Z,33.20
2022-08-26T13:08:34.086Z,33.70
2022-08-26T13:11:13.838Z,33.10
2022-08-26T13:14:08.686Z,32.60
2022-08-26T13:16:47.364Z,33.80
2022-08-26T13:19:37.081Z,34.30
2022-08-26T13:22:13.138Z,33.20
2022-08-26T13:25:04.971Z,32.20
2022-08-26T13:27:48.048Z,31.80
2022-08-26T13:30:37.409Z,31.60
2022-08-26T13:33:29.078Z,32.10
2022-08-26T13:36:05.580Z,32.10
2022-08-26T13:38:53.694Z,31.10
2022-08-26T13:41:29.846Z,30.80
2022-08-26T13:44:21.109Z,31.90
2022-08-26T13:46:56.865Z,32.50
2022-08-26T13:49:46.739Z,32.70
2022-08-26T13:52:25.542Z,31.80
2022-08-26T13:55:15.114Z,31.10
2022-08-26T13:57:58.161Z,31.30
2022-08-26T14:00:48.727Z,31.10
2022-08-26T14:03:44.755Z,30.80
2022-08-26T14:06:34.957Z,30.30
2022-08-26T14:09:17.729Z,30.40
2022-08-26T14:12:08.144Z,31.10
2022-08-26T14:14:44.069Z,31.80
2022-08-26T14:17:34.495Z,32.40
2022-08-26T14:20:11.446Z,32.60
2022-08-26T14:23:13.533Z,33.00
2022-08-26T14:25:39.233Z,32.80
2022-08-26T14:28:28.409Z,32.70
2022-08-26T14:31:20.482Z,32.90
2022-08-26T14:34:19.296Z,33.00
2022-08-26T14:37:09.211Z,32.70
2022-08-26T14:39:45.066Z,33.00
2022-08-26T14:42:36.834Z,32.70
2022-08-26T14:45:18.752Z,32.90
2022-08-26T14:48:07.814Z,33.00
2022-08-26T14:50:51.441Z,33.10
2022-08-26T14:54:04.005Z,32.80
2022-08-26T14:56:58.611Z,32.90
2022-08-26T14:59:39.951Z,32.70
2022-08-26T15:02:33.266Z,33.10
2022-08-26T15:05:22.780Z,33.20
2022-08-26T15:07:59.116Z,33.00
2022-08-26T15:10:48.938Z,32.80
2022-08-26T15:13:31.757Z,32.80
2022-08-26T15:16:20.679Z,32.80
2022-08-26T15:19:03.653Z,32.80
2022-08-26T15:21:47.347Z,32.60
2022-08-26T15:24:32.225Z,32.60
2022-08-26T15:27:14.262Z,32.60
2022-08-26T15:29:57.389Z,32.30
2022-08-26T15:32:40.017Z,32.00
2022-08-26T15:35:22.712Z,31.80
2022-08-26T15:38:12.694Z,32.00
2022-08-26T15:40:48.845Z,32.20
2022-08-26T15:43:38.691Z,32.10
2022-08-26T15:46:21.475Z,31.40
2022-08-26T15:49:04.036Z,31.80
2022-08-26T15:51:49.386Z,31.90
2022-08-26T15:54:32.677Z,31.80
2022-08-26T15:57:19.068Z,31.60
2022-08-26T16:00:12.690Z,31.00
2022-08-26T16:03:07.774Z,30.80
2022-08-26T16:05:56.853Z,31.00
2022-08-26T16:08:39.177Z,31.30
2022-08-26T16:11:25.154Z,31.40
2022-08-26T16:14:08.214Z,31.40
2022-08-26T16:16:53.693Z,31.40
2022-08-26T16:19:37.978Z,31.40
2022-08-26T16:22:21.448Z,31.30
2022-08-26T16:25:11.840Z,31.30
2022-08-26T16:27:54.574Z,31.10
2022-08-26T16:30:38.179Z,31.10
2022-08-26T16:33:29.489Z,31.10
2022-08-26T16:36:14.030Z,31.00
2022-08-26T16:39:03.191Z,31.00
2022-08-26T16:41:39.473Z,30.70
2022-08-26T16:44:30.836Z,30.80
2022-08-26T16:47:13.100Z,30.80
2022-08-26T16:50:02.261Z,30.70
2022-08-26T16:52:38.426Z,30.60
2022-08-26T16:55:28.377Z,30.50
2022-08-26T16:58:10.454Z,30.50
2022-08-26T17:00:53.637Z,30.40
2022-08-26T17:03:36.016Z,30.40
2022-08-26T17:06:19.527Z,30.40
2022-08-26T17:08:55.584Z,30.40
2022-08-26T17:11:45.697Z,30.30
2022-08-26T17:14:21.424Z,30.00
2022-08-26T17:17:11.202Z,30.00
2022-08-26T17:19:47.421Z,30.00
2022-08-26T17:22:36.731Z,29.90
2022-08-26T17:25:18.518Z,29.90
2022-08-26T17:28:13.182Z,29.90
2022-08-26T17:30:51.418Z,29.90
2022-08-26T17:33:41.265Z,29.70
2022-08-26T17:36:17.811Z,29.70
2022-08-26T17:39:06.351Z,29.60
2022-08-26T17:42:01.789Z,29.60
2022-08-26T17:44:52.681Z,29.50
2022-08-26T17:47:28.242Z,29.40
2022-08-26T17:50:20.779Z,29.40
2022-08-26T17:52:56.850Z,29.30
2022-08-26T17:55:48.721Z,29.20
2022-08-26T17:58:27.081Z,29.20
2022-08-26T18:01:17.515Z,29.00
2022-08-26T18:04:00.948Z,28.90
2022-08-26T18:06:56.558Z,28.90
2022-08-26T18:09:45.230Z,28.80
2022-08-26T18:12:27.842Z,28.80
2022-08-26T18:15:12.522Z,28.80
2022-08-26T18:17:54.479Z,28.70
2022-08-26T18:20:37.545Z,28.70
2022-08-26T18:23:27.036Z,28.70
2022-08-26T18:26:04.774Z,28.60
2022-08-26T18:28:53.218Z,28.60
2022-08-26T18:31:38.007Z,28.60
2022-08-26T18:34:21.105Z,28.50
2022-08-26T18:37:03.897Z,28.40
2022-08-26T18:39:46.090Z,28.30
2022-08-26T18:42:28.273Z,28.30
2022-08-26T18:45:15.977Z,28.30
2022-08-26T18:47:55.891Z,28.20
2022-08-26T18:50:47.287Z,28.20
2022-08-26T18:53:22.038Z,28.20
2022-08-26T18:56:12.381Z,28.20
2022-08-26T18:58:49.913Z,28.20
2022-08-26T19:01:40.521Z,28.20
2022-08-26T19:04:18.406Z,28.20
2022-08-26T19:07:07.331Z,28.10
2022-08-26T19:09:43.317Z,28.10
2022-08-26T19:12:33.148Z,28.00
2022-08-26T19:15:09.827Z,28.00
2022-08-26T19:17:59.136Z,28.00
2022-08-26T19:20:46.673Z,28.00
2022-08-26T19:23:34.213Z,28.00
2022-08-26T19:26:18.754Z,27.90
2022-08-26T19:29:08.448Z,27.90
2022-08-26T19:31:52.239Z,27.90
2022-08-26T19:34:41.410Z,27.90
2022-08-26T19:37:17.127Z,27.90
2022-08-26T19:40:06.040Z,27.80
2022-08-26T19:42:49.171Z,27.80
2022-08-26T19:45:38.255Z,27.80
2022-08-26T19:48:20.829Z,27.70
2022-08-26T19:51:02.802Z,27.70
2022-08-26T19:53:46.015Z,27.60
2022-08-26T19:56:28.822Z,27.40
2022-08-26T19:59:12.063Z,27.30
2022-08-26T20:02:00.623Z,27.20
2022-08-26T20:04:45.556Z,27.30
2022-08-26T20:07:28.434Z,27.10
2022-08-26T20:10:27.672Z,27.10
2022-08-26T20:13:16.736Z,26.90
2022-08-26T20:16:05.088Z,26.80
2022-08-26T20:19:19.109Z,26.70
2022-08-26T20:22:08.763Z,26.70
2022-08-26T20:24:45.525Z,26.60
2022-08-26T20:27:38.307Z,26.60
2022-08-26T20:30:16.992Z,26.60
2022-08-26T20:33:06.062Z,26.50
2022-08-26T20:35:41.590Z,26.40
2022-08-26T20:38:30.774Z,26.40
2022-08-26T20:41:13.768Z,26.30
2022-08-26T20:44:11.179Z,26.40
2022-08-26T20:47:06.057Z,26.20
2022-08-26T20:49:55.313Z,26.10
2022-08-26T20:52:31.754Z,26.10
2022-08-26T20:55:20.968Z,25.90
2022-08-26T20:58:03.972Z,25.80
2022-08-26T21:00:58.936Z,25.80
2022-08-26T21:03:47.589Z,25.70
2022-08-26T21:06:30.974Z,25.80
2022-08-26T21:09:28.546Z,25.70
2022-08-26T21:12:13.201Z,25.70
2022-08-26T21:14:55.246Z,25.70
2022-08-26T21:17:38.650Z,25.70
2022-08-26T21:20:28.256Z,25.60
2022-08-26T21:23:04.035Z,25.60
2022-08-26T21:25:54.510Z,25.70
2022-08-26T21:28:30.506Z,25.60
2022-08-26T21:31:23.031Z,25.50
2022-08-26T21:34:13.560Z,25.60
2022-08-26T21:37:16.605Z,25.50
2022-08-26T21:40:04.690Z,25.50
2022-08-26T21:42:42.518Z,25.50
2022-08-26T21:45:38.589Z,25.50
2022-08-26T21:48:32.265Z,25.30
2022-08-26T21:51:13.852Z,25.20
2022-08-26T21:53:59.000Z,25.10
2022-08-26T21:56:45.502Z,25.10
2022-08-26T21:59:28.817Z,25.00
2022-08-26T22:02:11.653Z,24.90
2022-08-26T22:04:55.941Z,24.90
2022-08-26T22:07:39.824Z,24.80
2022-08-26T22:10:22.785Z,24.80
2022-08-26T22:13:11.542Z,24.90
2022-08-26T22:15:49.833Z,24.80
2022-08-26T22:18:41.577Z,24.70
2022-08-26T22:21:40.781Z,24.70
2022-08-26T22:24:33.901Z,24.80
2022-08-26T22:27:09.717Z,24.80
2022-08-26T22:29:58.925Z,24.70
2022-08-26T22:32:35.342Z,24.70
2022-08-26T22:35:29.263Z,24.60
2022-08-26T22:38:10.207Z,24.60
2022-08-26T22:41:01.935Z,24.40
2022-08-26T22:43:44.786Z,24.30
2022-08-26T22:46:31.752Z,24.30
2022-08-26T22:49:20.034Z,24.20
2022-08-26T22:52:02.605Z,24.20
2022-08-26T22:54:45.334Z,23.90
2022-08-26T22:57:28.598Z,23.90
2022-08-26T23:00:14.445Z,24.00
2022-08-26T23:02:58.371Z,24.00
2022-08-26T23:05:41.960Z,23.90
2022-08-26T23:08:20.329Z,23.90
2022-08-26T23:11:09.382Z,23.80
2022-08-26T23:13:45.087Z,23.80
2022-08-26T23:16:35.606Z,24.00
2022-08-26T23:19:19.313Z,23.90
2022-08-26T23:22:02.277Z,23.90
2022-08-26T23:24:51.772Z,23.80
2022-08-26T23:27:34.983Z,23.90
2022-08-26T23:30:20.310Z,23.70
2022-08-26T23:33:02.853Z,23.70
2022-08-26T23:35:52.265Z,23.50
2022-08-26T23:38:35.648Z,23.60
2022-08-26T23:41:19.965Z,23.70
2022-08-26T23:44:03.817Z,23.60
2022-08-26T23:46:53.469Z,23.50
2022-08-26T23:49:43.204Z,23.50
2022-08-26T23:52:49.788Z,23.40
2022-08-26T23:55:31.885Z,23.60
2022-08-26T23:58:14.512Z,23.40
